sensor_id;sensor_type;location;lat;lon;timestamp;temperature;humidity
65239;SHT30;51827;51.186;6.926;2024-02-23T00:00:51;19.64;54.49
65239;SHT30;51827;51.186;6.926;2024-02-23T00:01:52;19.66;54.49
65239;SHT30;51827;51.186;6.926;2024-02-23T00:02:52;19.66;54.47
65239;SHT30;51827;51.186;6.926;2024-02-23T00:03:52;19.63;54.44
65239;SHT30;51827;51.186;6.926;2024-02-23T00:04:52;19.63;54.47
65239;SHT30;51827;51.186;6.926;2024-02-23T00:05:53;19.63;54.47
65239;SHT30;51827;51.186;6.926;2024-02-23T00:06:53;19.64;54.44
65239;SHT30;51827;51.186;6.926;2024-02-23T00:07:53;19.63;54.47
65239;SHT30;51827;51.186;6.926;2024-02-23T00:08:54;19.64;54.46
65239;SHT30;51827;51.186;6.926;2024-02-23T00:09:54;19.66;54.45
65239;SHT30;51827;51.186;6.926;2024-02-23T00:10:54;19.64;54.46
65239;SHT30;51827;51.186;6.926;2024-02-23T00:11:55;19.66;54.44
65239;SHT30;51827;51.186;6.926;2024-02-23T00:12:55;19.62;54.43
65239;SHT30;51827;51.186;6.926;2024-02-23T00:13:55;19.66;54.42
65239;SHT30;51827;51.186;6.926;2024-02-23T00:14:56;19.63;54.41
65239;SHT30;51827;51.186;6.926;2024-02-23T00:15:56;19.63;54.45
65239;SHT30;51827;51.186;6.926;2024-02-23T00:16:56;19.63;54.42
65239;SHT30;51827;51.186;6.926;2024-02-23T00:17:57;19.66;54.44
65239;SHT30;51827;51.186;6.926;2024-02-23T00:18:57;19.64;54.37
65239;SHT30;51827;51.186;6.926;2024-02-23T00:19:57;19.64;54.43
65239;SHT30;51827;51.186;6.926;2024-02-23T00:20:57;19.63;54.38
65239;SHT30;51827;51.186;6.926;2024-02-23T00:21:58;19.64;54.37
65239;SHT30;51827;51.186;6.926;2024-02-23T00:22:58;19.62;54.36
65239;SHT30;51827;51.186;6.926;2024-02-23T00:23:59;19.64;54.37
65239;SHT30;51827;51.186;6.926;2024-02-23T00:24:59;19.64;54.38
65239;SHT30;51827;51.186;6.926;2024-02-23T00:25:59;19.62;54.41
65239;SHT30;51827;51.186;6.926;2024-02-23T00:26:59;19.66;54.36
65239;SHT30;51827;51.186;6.926;2024-02-23T00:28:00;19.63;54.35
65239;SHT30;51827;51.186;6.926;2024-02-23T00:29:02;19.63;54.34
65239;SHT30;51827;51.186;6.926;2024-02-23T00:30:03;19.63;54.31
65239;SHT30;51827;51.186;6.926;2024-02-23T00:31:03;19.64;54.25
65239;SHT30;51827;51.186;6.926;2024-02-23T00:32:04;19.62;54.22
65239;SHT30;51827;51.186;6.926;2024-02-23T00:33:05;19.63;54.23
65239;SHT30;51827;51.186;6.926;2024-02-23T00:34:05;19.64;54.28
65239;SHT30;51827;51.186;6.926;2024-02-23T00:35:05;19.60;54.26
65239;SHT30;51827;51.186;6.926;2024-02-23T00:36:06;19.62;54.33
65239;SHT30;51827;51.186;6.926;2024-02-23T00:37:06;19.62;54.30
65239;SHT30;51827;51.186;6.926;2024-02-23T00:38:06;19.60;54.28
65239;SHT30;51827;51.186;6.926;2024-02-23T00:39:07;19.60;54.30
65239;SHT30;51827;51.186;6.926;2024-02-23T00:40:08;19.60;54.34
65239;SHT30;51827;51.186;6.926;2024-02-23T00:41:08;19.62;54.33
65239;SHT30;51827;51.186;6.926;2024-02-23T00:42:08;19.63;54.31
65239;SHT30;51827;51.186;6.926;2024-02-23T00:43:09;19.63;54.28
65239;SHT30;51827;51.186;6.926;2024-02-23T00:44:09;19.63;54.31
65239;SHT30;51827;51.186;6.926;2024-02-23T00:45:09;19.60;54.34
65239;SHT30;51827;51.186;6.926;2024-02-23T00:46:10;19.62;54.31
65239;SHT30;51827;51.186;6.926;2024-02-23T00:47:10;19.60;54.35
65239;SHT30;51827;51.186;6.926;2024-02-23T00:48:10;19.63;54.28
65239;SHT30;51827;51.186;6.926;2024-02-23T00:49:10;19.62;54.28
65239;SHT30;51827;51.186;6.926;2024-02-23T00:50:11;19.62;54.33
65239;SHT30;51827;51.186;6.926;2024-02-23T00:51:11;19.60;54.24
65239;SHT30;51827;51.186;6.926;2024-02-23T00:52:11;19.60;54.30
65239;SHT30;51827;51.186;6.926;2024-02-23T00:53:11;19.60;54.30
65239;SHT30;51827;51.186;6.926;2024-02-23T00:54:12;19.60;54.28
65239;SHT30;51827;51.186;6.926;2024-02-23T00:55:12;19.62;54.30
65239;SHT30;51827;51.186;6.926;2024-02-23T00:56:12;19.59;54.30
65239;SHT30;51827;51.186;6.926;2024-02-23T00:57:12;19.60;54.30
65239;SHT30;51827;51.186;6.926;2024-02-23T00:58:13;19.59;54.28
65239;SHT30;51827;51.186;6.926;2024-02-23T00:59:13;19.62;54.30
65239;SHT30;51827;51.186;6.926;2024-02-23T01:00:13;19.57;54.28
65239;SHT30;51827;51.186;6.926;2024-02-23T01:01:14;19.59;54.30
65239;SHT30;51827;51.186;6.926;2024-02-23T01:02:14;19.59;54.29
65239;SHT30;51827;51.186;6.926;2024-02-23T01:03:14;19.60;54.30
65239;SHT30;51827;51.186;6.926;2024-02-23T01:04:14;19.57;54.28
65239;SHT30;51827;51.186;6.926;2024-02-23T01:05:15;19.60;54.28
65239;SHT30;51827;51.186;6.926;2024-02-23T01:06:15;19.57;54.26
65239;SHT30;51827;51.186;6.926;2024-02-23T01:07:15;19.60;54.28
65239;SHT30;51827;51.186;6.926;2024-02-23T01:08:15;19.59;54.30
65239;SHT30;51827;51.186;6.926;2024-02-23T01:09:16;19.57;54.29
65239;SHT30;51827;51.186;6.926;2024-02-23T01:10:16;19.60;54.28
65239;SHT30;51827;51.186;6.926;2024-02-23T01:11:17;19.59;54.29
65239;SHT30;51827;51.186;6.926;2024-02-23T01:12:17;19.59;54.30
65239;SHT30;51827;51.186;6.926;2024-02-23T01:13:17;19.59;54.28
65239;SHT30;51827;51.186;6.926;2024-02-23T01:14:18;19.57;54.29
65239;SHT30;51827;51.186;6.926;2024-02-23T01:15:18;19.59;54.29
65239;SHT30;51827;51.186;6.926;2024-02-23T01:16:18;19.57;54.29
65239;SHT30;51827;51.186;6.926;2024-02-23T01:17:18;19.59;54.31
65239;SHT30;51827;51.186;6.926;2024-02-23T01:18:18;19.59;54.27
65239;SHT30;51827;51.186;6.926;2024-02-23T01:19:19;19.57;54.29
65239;SHT30;51827;51.186;6.926;2024-02-23T01:20:19;19.57;54.32
65239;SHT30;51827;51.186;6.926;2024-02-23T01:21:19;19.59;54.26
65239;SHT30;51827;51.186;6.926;2024-02-23T01:22:19;19.59;54.31
65239;SHT30;51827;51.186;6.926;2024-02-23T01:23:20;19.57;54.28
65239;SHT30;51827;51.186;6.926;2024-02-23T01:24:20;19.57;54.29
65239;SHT30;51827;51.186;6.926;2024-02-23T01:25:20;19.57;54.25
65239;SHT30;51827;51.186;6.926;2024-02-23T01:26:20;19.57;54.30
65239;SHT30;51827;51.186;6.926;2024-02-23T01:27:21;19.59;54.30
65239;SHT30;51827;51.186;6.926;2024-02-23T01:28:21;19.57;54.27
65239;SHT30;51827;51.186;6.926;2024-02-23T01:29:22;19.60;54.30
65239;SHT30;51827;51.186;6.926;2024-02-23T01:30:22;19.57;54.28
65239;SHT30;51827;51.186;6.926;2024-02-23T01:31:22;19.59;54.30
65239;SHT30;51827;51.186;6.926;2024-02-23T01:32:22;19.59;54.29
65239;SHT30;51827;51.186;6.926;2024-02-23T01:33:23;19.59;54.28
65239;SHT30;51827;51.186;6.926;2024-02-23T01:34:23;19.59;54.32
65239;SHT30;51827;51.186;6.926;2024-02-23T01:35:23;19.56;54.29
65239;SHT30;51827;51.186;6.926;2024-02-23T01:36:23;19.54;54.29
65239;SHT30;51827;51.186;6.926;2024-02-23T01:37:24;19.57;54.29
65239;SHT30;51827;51.186;6.926;2024-02-23T01:38:24;19.59;54.31
65239;SHT30;51827;51.186;6.926;2024-02-23T01:39:24;19.54;54.31
65239;SHT30;51827;51.186;6.926;2024-02-23T01:40:24;19.56;54.30
65239;SHT30;51827;51.186;6.926;2024-02-23T01:41:25;19.56;54.28
65239;SHT30;51827;51.186;6.926;2024-02-23T01:42:25;19.56;54.29
65239;SHT30;51827;51.186;6.926;2024-02-23T01:43:26;19.56;54.22
65239;SHT30;51827;51.186;6.926;2024-02-23T01:44:26;19.56;54.30
65239;SHT30;51827;51.186;6.926;2024-02-23T01:45:26;19.57;54.28
65239;SHT30;51827;51.186;6.926;2024-02-23T01:46:27;19.56;54.29
65239;SHT30;51827;51.186;6.926;2024-02-23T01:47:28;19.56;54.27
65239;SHT30;51827;51.186;6.926;2024-02-23T01:48:29;19.52;54.24
65239;SHT30;51827;51.186;6.926;2024-02-23T01:49:29;19.56;54.28
65239;SHT30;51827;51.186;6.926;2024-02-23T01:50:30;19.56;54.27
65239;SHT30;51827;51.186;6.926;2024-02-23T01:51:30;19.54;54.25
65239;SHT30;51827;51.186;6.926;2024-02-23T01:52:31;19.56;54.25
65239;SHT30;51827;51.186;6.926;2024-02-23T01:53:31;19.57;54.26
65239;SHT30;51827;51.186;6.926;2024-02-23T01:54:32;19.56;54.25
65239;SHT30;51827;51.186;6.926;2024-02-23T01:55:33;19.56;54.28
65239;SHT30;51827;51.186;6.926;2024-02-23T01:56:33;19.56;54.25
65239;SHT30;51827;51.186;6.926;2024-02-23T01:57:33;19.54;54.25
65239;SHT30;51827;51.186;6.926;2024-02-23T01:58:35;19.56;54.28
65239;SHT30;51827;51.186;6.926;2024-02-23T01:59:38;19.57;54.23
65239;SHT30;51827;51.186;6.926;2024-02-23T02:00:38;19.56;54.25
65239;SHT30;51827;51.186;6.926;2024-02-23T02:01:39;19.56;54.26
65239;SHT30;51827;51.186;6.926;2024-02-23T02:02:39;19.54;54.24
65239;SHT30;51827;51.186;6.926;2024-02-23T02:03:39;19.54;54.26
65239;SHT30;51827;51.186;6.926;2024-02-23T02:04:40;19.53;54.22
65239;SHT30;51827;51.186;6.926;2024-02-23T02:05:40;19.54;54.25
65239;SHT30;51827;51.186;6.926;2024-02-23T02:06:40;19.52;54.24
65239;SHT30;51827;51.186;6.926;2024-02-23T02:07:41;19.54;54.25
65239;SHT30;51827;51.186;6.926;2024-02-23T02:08:42;19.53;54.23
65239;SHT30;51827;51.186;6.926;2024-02-23T02:09:42;19.53;54.22
65239;SHT30;51827;51.186;6.926;2024-02-23T02:10:42;19.56;54.25
65239;SHT30;51827;51.186;6.926;2024-02-23T02:11:49;19.52;54.25
65239;SHT30;51827;51.186;6.926;2024-02-23T02:12:49;19.56;54.24
65239;SHT30;51827;51.186;6.926;2024-02-23T02:13:50;19.53;54.23
65239;SHT30;51827;51.186;6.926;2024-02-23T02:14:50;19.56;54.24
65239;SHT30;51827;51.186;6.926;2024-02-23T02:15:50;19.52;54.25
65239;SHT30;51827;51.186;6.926;2024-02-23T02:16:50;19.53;54.22
65239;SHT30;51827;51.186;6.926;2024-02-23T02:17:51;19.54;54.23
65239;SHT30;51827;51.186;6.926;2024-02-23T02:18:51;19.53;54.24
65239;SHT30;51827;51.186;6.926;2024-02-23T02:19:51;19.54;54.22
65239;SHT30;51827;51.186;6.926;2024-02-23T02:20:54;19.53;54.19
65239;SHT30;51827;51.186;6.926;2024-02-23T02:21:56;19.54;54.22
65239;SHT30;51827;51.186;6.926;2024-02-23T02:22:56;19.54;54.23
65239;SHT30;51827;51.186;6.926;2024-02-23T02:23:57;19.54;54.20
65239;SHT30;51827;51.186;6.926;2024-02-23T02:24:57;19.53;54.21
65239;SHT30;51827;51.186;6.926;2024-02-23T02:25:58;19.53;54.21
65239;SHT30;51827;51.186;6.926;2024-02-23T02:26:58;19.53;54.23
65239;SHT30;51827;51.186;6.926;2024-02-23T02:27:58;19.52;54.24
65239;SHT30;51827;51.186;6.926;2024-02-23T02:28:59;19.50;54.24
65239;SHT30;51827;51.186;6.926;2024-02-23T02:29:59;19.53;54.19
65239;SHT30;51827;51.186;6.926;2024-02-23T02:30:59;19.52;54.22
65239;SHT30;51827;51.186;6.926;2024-02-23T02:31:59;19.53;54.22
65239;SHT30;51827;51.186;6.926;2024-02-23T02:33:00;19.52;54.19
65239;SHT30;51827;51.186;6.926;2024-02-23T02:34:00;19.52;54.15
65239;SHT30;51827;51.186;6.926;2024-02-23T02:35:00;19.53;54.19
65239;SHT30;51827;51.186;6.926;2024-02-23T02:36:00;19.52;54.17
65239;SHT30;51827;51.186;6.926;2024-02-23T02:37:01;19.53;54.19
65239;SHT30;51827;51.186;6.926;2024-02-23T02:38:01;19.53;54.17
65239;SHT30;51827;51.186;6.926;2024-02-23T02:39:01;19.53;54.19
65239;SHT30;51827;51.186;6.926;2024-02-23T02:40:02;19.52;54.15
65239;SHT30;51827;51.186;6.926;2024-02-23T02:41:02;19.54;54.19
65239;SHT30;51827;51.186;6.926;2024-02-23T02:42:02;19.52;54.15
65239;SHT30;51827;51.186;6.926;2024-02-23T02:43:03;19.53;54.15
65239;SHT30;51827;51.186;6.926;2024-02-23T02:44:03;19.52;54.17
65239;SHT30;51827;51.186;6.926;2024-02-23T02:45:04;19.52;54.14
65239;SHT30;51827;51.186;6.926;2024-02-23T02:46:04;19.52;54.15
65239;SHT30;51827;51.186;6.926;2024-02-23T02:47:05;19.53;54.16
65239;SHT30;51827;51.186;6.926;2024-02-23T02:48:05;19.52;54.17
65239;SHT30;51827;51.186;6.926;2024-02-23T02:49:06;19.50;54.11
65239;SHT30;51827;51.186;6.926;2024-02-23T02:50:06;19.52;54.12
65239;SHT30;51827;51.186;6.926;2024-02-23T02:51:06;19.52;54.14
65239;SHT30;51827;51.186;6.926;2024-02-23T02:52:07;19.52;54.12
65239;SHT30;51827;51.186;6.926;2024-02-23T02:53:07;19.50;54.15
65239;SHT30;51827;51.186;6.926;2024-02-23T02:54:07;19.52;54.17
65239;SHT30;51827;51.186;6.926;2024-02-23T02:55:07;19.53;54.11
65239;SHT30;51827;51.186;6.926;2024-02-23T02:56:08;19.52;54.10
65239;SHT30;51827;51.186;6.926;2024-02-23T02:57:08;19.52;54.09
65239;SHT30;51827;51.186;6.926;2024-02-23T02:58:09;19.52;54.12
65239;SHT30;51827;51.186;6.926;2024-02-23T02:59:09;19.50;54.06
65239;SHT30;51827;51.186;6.926;2024-02-23T03:00:10;19.52;54.06
65239;SHT30;51827;51.186;6.926;2024-02-23T03:01:11;19.52;54.06
65239;SHT30;51827;51.186;6.926;2024-02-23T03:02:12;19.52;54.06
65239;SHT30;51827;51.186;6.926;2024-02-23T03:03:12;19.49;54.07
65239;SHT30;51827;51.186;6.926;2024-02-23T03:04:12;19.50;54.06
65239;SHT30;51827;51.186;6.926;2024-02-23T03:05:12;19.52;54.05
65239;SHT30;51827;51.186;6.926;2024-02-23T03:06:13;19.52;54.12
65239;SHT30;51827;51.186;6.926;2024-02-23T03:07:13;19.52;54.06
65239;SHT30;51827;51.186;6.926;2024-02-23T03:08:13;19.52;54.06
65239;SHT30;51827;51.186;6.926;2024-02-23T03:09:13;19.52;54.05
65239;SHT30;51827;51.186;6.926;2024-02-23T03:10:14;19.52;54.06
65239;SHT30;51827;51.186;6.926;2024-02-23T03:11:14;19.50;54.06
65239;SHT30;51827;51.186;6.926;2024-02-23T03:12:14;19.52;54.06
65239;SHT30;51827;51.186;6.926;2024-02-23T03:13:14;19.52;54.06
65239;SHT30;51827;51.186;6.926;2024-02-23T03:14:15;19.52;54.08
65239;SHT30;51827;51.186;6.926;2024-02-23T03:15:15;19.50;54.06
65239;SHT30;51827;51.186;6.926;2024-02-23T03:16:17;19.50;54.04
65239;SHT30;51827;51.186;6.926;2024-02-23T03:17:17;19.53;54.04
65239;SHT30;51827;51.186;6.926;2024-02-23T03:18:17;19.50;54.03
65239;SHT30;51827;51.186;6.926;2024-02-23T03:19:17;19.50;54.11
65239;SHT30;51827;51.186;6.926;2024-02-23T03:20:18;19.50;54.05
65239;SHT30;51827;51.186;6.926;2024-02-23T03:21:18;19.52;54.05
65239;SHT30;51827;51.186;6.926;2024-02-23T03:22:18;19.50;54.04
65239;SHT30;51827;51.186;6.926;2024-02-23T03:23:18;19.50;54.05
65239;SHT30;51827;51.186;6.926;2024-02-23T03:24:19;19.49;54.06
65239;SHT30;51827;51.186;6.926;2024-02-23T03:25:19;19.52;54.06
65239;SHT30;51827;51.186;6.926;2024-02-23T03:26:19;19.50;54.06
65239;SHT30;51827;51.186;6.926;2024-02-23T03:27:20;19.50;54.06
65239;SHT30;51827;51.186;6.926;2024-02-23T03:28:21;19.50;54.09
65239;SHT30;51827;51.186;6.926;2024-02-23T03:29:21;19.50;54.02
65239;SHT30;51827;51.186;6.926;2024-02-23T03:30:22;19.49;54.09
65239;SHT30;51827;51.186;6.926;2024-02-23T03:31:22;19.47;54.05
65239;SHT30;51827;51.186;6.926;2024-02-23T03:32:22;19.47;54.01
65239;SHT30;51827;51.186;6.926;2024-02-23T03:33:23;19.49;54.02
65239;SHT30;51827;51.186;6.926;2024-02-23T03:34:23;19.50;54.05
65239;SHT30;51827;51.186;6.926;2024-02-23T03:35:23;19.50;54.05
65239;SHT30;51827;51.186;6.926;2024-02-23T03:36:23;19.52;54.04
65239;SHT30;51827;51.186;6.926;2024-02-23T03:37:24;19.50;54.03
65239;SHT30;51827;51.186;6.926;2024-02-23T03:38:24;19.50;54.04
65239;SHT30;51827;51.186;6.926;2024-02-23T03:39:24;19.49;54.03
65239;SHT30;51827;51.186;6.926;2024-02-23T03:40:24;19.49;54.02
65239;SHT30;51827;51.186;6.926;2024-02-23T03:41:24;19.49;54.05
65239;SHT30;51827;51.186;6.926;2024-02-23T03:42:25;19.50;54.01
65239;SHT30;51827;51.186;6.926;2024-02-23T03:43:26;19.50;54.03
65239;SHT30;51827;51.186;6.926;2024-02-23T03:44:26;19.49;54.01
65239;SHT30;51827;51.186;6.926;2024-02-23T03:45:26;19.50;54.03
65239;SHT30;51827;51.186;6.926;2024-02-23T03:46:26;19.49;54.02
65239;SHT30;51827;51.186;6.926;2024-02-23T03:47:26;19.49;54.03
65239;SHT30;51827;51.186;6.926;2024-02-23T03:48:27;19.47;54.05
65239;SHT30;51827;51.186;6.926;2024-02-23T03:49:27;19.52;54.05
65239;SHT30;51827;51.186;6.926;2024-02-23T03:50:27;19.46;54.03
65239;SHT30;51827;51.186;6.926;2024-02-23T03:51:27;19.49;54.06
65239;SHT30;51827;51.186;6.926;2024-02-23T03:52:28;19.49;54.01
65239;SHT30;51827;51.186;6.926;2024-02-23T03:53:28;19.47;54.01
65239;SHT30;51827;51.186;6.926;2024-02-23T03:54:28;19.49;54.01
65239;SHT30;51827;51.186;6.926;2024-02-23T03:55:28;19.47;53.96
65239;SHT30;51827;51.186;6.926;2024-02-23T03:56:29;19.49;53.98
65239;SHT30;51827;51.186;6.926;2024-02-23T03:57:29;19.47;54.00
65239;SHT30;51827;51.186;6.926;2024-02-23T03:58:29;19.47;53.97
65239;SHT30;51827;51.186;6.926;2024-02-23T03:59:29;19.47;53.99
65239;SHT30;51827;51.186;6.926;2024-02-23T04:00:30;19.49;53.99
65239;SHT30;51827;51.186;6.926;2024-02-23T04:01:30;19.47;53.95
65239;SHT30;51827;51.186;6.926;2024-02-23T04:02:30;19.49;53.98
65239;SHT30;51827;51.186;6.926;2024-02-23T04:03:30;19.49;53.93
65239;SHT30;51827;51.186;6.926;2024-02-23T04:04:31;19.47;53.93
65239;SHT30;51827;51.186;6.926;2024-02-23T04:05:31;19.49;53.95
65239;SHT30;51827;51.186;6.926;2024-02-23T04:06:32;19.47;53.98
65239;SHT30;51827;51.186;6.926;2024-02-23T04:07:33;19.49;53.95
65239;SHT30;51827;51.186;6.926;2024-02-23T04:08:33;19.49;53.98
65239;SHT30;51827;51.186;6.926;2024-02-23T04:09:33;19.46;53.95
65239;SHT30;51827;51.186;6.926;2024-02-23T04:10:34;19.49;53.95
65239;SHT30;51827;51.186;6.926;2024-02-23T04:11:34;19.49;53.99
65239;SHT30;51827;51.186;6.926;2024-02-23T04:12:34;19.47;53.94
65239;SHT30;51827;51.186;6.926;2024-02-23T04:13:35;19.47;53.95
65239;SHT30;51827;51.186;6.926;2024-02-23T04:14:35;19.47;53.92
65239;SHT30;51827;51.186;6.926;2024-02-23T04:15:35;19.47;53.93
65239;SHT30;51827;51.186;6.926;2024-02-23T04:16:35;19.47;53.96
65239;SHT30;51827;51.186;6.926;2024-02-23T04:17:36;19.46;53.94
65239;SHT30;51827;51.186;6.926;2024-02-23T04:18:36;19.47;53.91
65239;SHT30;51827;51.186;6.926;2024-02-23T04:19:36;19.46;53.93
65239;SHT30;51827;51.186;6.926;2024-02-23T04:20:36;19.49;53.94
65239;SHT30;51827;51.186;6.926;2024-02-23T04:21:37;19.47;53.93
65239;SHT30;51827;51.186;6.926;2024-02-23T04:22:37;19.46;53.87
65239;SHT30;51827;51.186;6.926;2024-02-23T04:23:38;19.49;53.90
65239;SHT30;51827;51.186;6.926;2024-02-23T04:24:39;19.46;53.94
65239;SHT30;51827;51.186;6.926;2024-02-23T04:25:39;19.47;53.88
65239;SHT30;51827;51.186;6.926;2024-02-23T04:26:39;19.46;53.89
65239;SHT30;51827;51.186;6.926;2024-02-23T04:27:40;19.47;53.88
65239;SHT30;51827;51.186;6.926;2024-02-23T04:28:41;19.46;53.89
65239;SHT30;51827;51.186;6.926;2024-02-23T04:29:41;19.46;53.88
65239;SHT30;51827;51.186;6.926;2024-02-23T04:30:41;19.47;53.85
65239;SHT30;51827;51.186;6.926;2024-02-23T04:31:42;19.46;53.84
65239;SHT30;51827;51.186;6.926;2024-02-23T04:32:42;19.47;53.85
65239;SHT30;51827;51.186;6.926;2024-02-23T04:33:42;19.47;53.85
65239;SHT30;51827;51.186;6.926;2024-02-23T04:34:42;19.46;53.85
65239;SHT30;51827;51.186;6.926;2024-02-23T04:35:43;19.45;53.88
65239;SHT30;51827;51.186;6.926;2024-02-23T04:36:43;19.47;53.92
65239;SHT30;51827;51.186;6.926;2024-02-23T04:37:44;19.47;53.94
65239;SHT30;51827;51.186;6.926;2024-02-23T04:38:44;19.46;53.93
65239;SHT30;51827;51.186;6.926;2024-02-23T04:39:44;19.43;53.92
65239;SHT30;51827;51.186;6.926;2024-02-23T04:40:45;19.45;53.87
65239;SHT30;51827;51.186;6.926;2024-02-23T04:41:45;19.45;53.88
65239;SHT30;51827;51.186;6.926;2024-02-23T04:42:45;19.45;53.90
65239;SHT30;51827;51.186;6.926;2024-02-23T04:43:45;19.46;53.85
65239;SHT30;51827;51.186;6.926;2024-02-23T04:44:46;19.47;53.83
65239;SHT30;51827;51.186;6.926;2024-02-23T04:45:46;19.47;53.87
65239;SHT30;51827;51.186;6.926;2024-02-23T04:46:46;19.46;53.92
65239;SHT30;51827;51.186;6.926;2024-02-23T04:47:46;19.46;53.84
65239;SHT30;51827;51.186;6.926;2024-02-23T04:48:47;19.47;53.88
65239;SHT30;51827;51.186;6.926;2024-02-23T04:49:47;19.46;53.89
65239;SHT30;51827;51.186;6.926;2024-02-23T04:50:47;19.46;53.83
65239;SHT30;51827;51.186;6.926;2024-02-23T04:51:47;19.47;53.84
65239;SHT30;51827;51.186;6.926;2024-02-23T04:52:47;19.47;53.85
65239;SHT30;51827;51.186;6.926;2024-02-23T04:53:48;19.46;53.87
65239;SHT30;51827;51.186;6.926;2024-02-23T04:54:49;19.47;54.01
65239;SHT30;51827;51.186;6.926;2024-02-23T04:55:49;19.47;54.12
65239;SHT30;51827;51.186;6.926;2024-02-23T04:56:49;19.49;54.06
65239;SHT30;51827;51.186;6.926;2024-02-23T04:57:49;19.49;53.95
65239;SHT30;51827;51.186;6.926;2024-02-23T04:58:51;19.46;53.96
65239;SHT30;51827;51.186;6.926;2024-02-23T04:59:51;19.47;53.95
65239;SHT30;51827;51.186;6.926;2024-02-23T05:00:51;19.47;53.97
65239;SHT30;51827;51.186;6.926;2024-02-23T05:01:51;19.46;53.94
65239;SHT30;51827;51.186;6.926;2024-02-23T05:02:52;19.46;53.90
65239;SHT30;51827;51.186;6.926;2024-02-23T05:03:52;19.47;53.86
65239;SHT30;51827;51.186;6.926;2024-02-23T05:04:52;19.46;53.82
65239;SHT30;51827;51.186;6.926;2024-02-23T05:05:52;19.46;53.80
65239;SHT30;51827;51.186;6.926;2024-02-23T05:06:53;19.46;53.82
65239;SHT30;51827;51.186;6.926;2024-02-23T05:07:53;19.47;53.75
65239;SHT30;51827;51.186;6.926;2024-02-23T05:08:53;19.49;53.79
65239;SHT30;51827;51.186;6.926;2024-02-23T05:09:53;19.49;53.77
65239;SHT30;51827;51.186;6.926;2024-02-23T05:10:53;19.45;53.75
65239;SHT30;51827;51.186;6.926;2024-02-23T05:11:54;19.46;53.72
65239;SHT30;51827;51.186;6.926;2024-02-23T05:12:54;19.45;53.77
65239;SHT30;51827;51.186;6.926;2024-02-23T05:13:54;19.46;53.72
65239;SHT30;51827;51.186;6.926;2024-02-23T05:14:54;19.47;53.67
65239;SHT30;51827;51.186;6.926;2024-02-23T05:15:55;19.46;53.63
65239;SHT30;51827;51.186;6.926;2024-02-23T05:16:56;19.45;53.63
65239;SHT30;51827;51.186;6.926;2024-02-23T05:17:56;19.46;53.66
65239;SHT30;51827;51.186;6.926;2024-02-23T05:18:56;19.46;54.05
65239;SHT30;51827;51.186;6.926;2024-02-23T05:19:56;19.49;54.72
65239;SHT30;51827;51.186;6.926;2024-02-23T05:20:57;19.49;54.68
65239;SHT30;51827;51.186;6.926;2024-02-23T05:21:57;19.47;54.48
65239;SHT30;51827;51.186;6.926;2024-02-23T05:22:57;19.46;54.34
65239;SHT30;51827;51.186;6.926;2024-02-23T05:23:57;19.49;53.91
65239;SHT30;51827;51.186;6.926;2024-02-23T05:24:57;19.46;53.72
65239;SHT30;51827;51.186;6.926;2024-02-23T05:25:58;19.47;53.70
65239;SHT30;51827;51.186;6.926;2024-02-23T05:26:58;19.47;53.65
65239;SHT30;51827;51.186;6.926;2024-02-23T05:27:58;19.46;53.63
65239;SHT30;51827;51.186;6.926;2024-02-23T05:28:59;19.47;53.61
65239;SHT30;51827;51.186;6.926;2024-02-23T05:29:59;19.46;53.56
65239;SHT30;51827;51.186;6.926;2024-02-23T05:31:02;19.46;53.55
65239;SHT30;51827;51.186;6.926;2024-02-23T05:32:02;19.45;53.57
65239;SHT30;51827;51.186;6.926;2024-02-23T05:33:02;19.45;53.54
65239;SHT30;51827;51.186;6.926;2024-02-23T05:34:03;19.45;53.51
65239;SHT30;51827;51.186;6.926;2024-02-23T05:35:03;19.46;53.54
65239;SHT30;51827;51.186;6.926;2024-02-23T05:36:04;19.45;53.51
65239;SHT30;51827;51.186;6.926;2024-02-23T05:37:04;19.47;53.42
65239;SHT30;51827;51.186;6.926;2024-02-23T05:38:05;19.45;53.46
65239;SHT30;51827;51.186;6.926;2024-02-23T05:39:05;19.46;53.46
65239;SHT30;51827;51.186;6.926;2024-02-23T05:40:05;19.47;53.48
65239;SHT30;51827;51.186;6.926;2024-02-23T05:41:06;19.47;53.49
65239;SHT30;51827;51.186;6.926;2024-02-23T05:42:14;19.46;53.43
65239;SHT30;51827;51.186;6.926;2024-02-23T05:43:14;19.46;53.50
65239;SHT30;51827;51.186;6.926;2024-02-23T05:44:14;19.45;53.46
65239;SHT30;51827;51.186;6.926;2024-02-23T05:45:15;19.46;53.46
65239;SHT30;51827;51.186;6.926;2024-02-23T05:46:15;19.46;53.52
65239;SHT30;51827;51.186;6.926;2024-02-23T05:47:15;19.46;53.66
65239;SHT30;51827;51.186;6.926;2024-02-23T05:48:15;19.45;53.73
65239;SHT30;51827;51.186;6.926;2024-02-23T05:49:15;19.46;53.82
65239;SHT30;51827;51.186;6.926;2024-02-23T05:50:16;19.46;53.84
65239;SHT30;51827;51.186;6.926;2024-02-23T05:51:16;19.45;53.92
65239;SHT30;51827;51.186;6.926;2024-02-23T05:52:16;19.46;53.96
65239;SHT30;51827;51.186;6.926;2024-02-23T05:53:17;19.43;53.93
65239;SHT30;51827;51.186;6.926;2024-02-23T05:54:17;19.45;53.94
65239;SHT30;51827;51.186;6.926;2024-02-23T05:55:17;19.47;53.95
65239;SHT30;51827;51.186;6.926;2024-02-23T05:56:17;19.46;53.95
65239;SHT30;51827;51.186;6.926;2024-02-23T05:57:18;19.47;53.94
65239;SHT30;51827;51.186;6.926;2024-02-23T05:58:18;19.46;53.94
65239;SHT30;51827;51.186;6.926;2024-02-23T05:59:18;19.46;53.93
65239;SHT30;51827;51.186;6.926;2024-02-23T06:00:18;19.47;53.95
65239;SHT30;51827;51.186;6.926;2024-02-23T06:01:19;19.45;54.00
65239;SHT30;51827;51.186;6.926;2024-02-23T06:02:19;19.47;53.95
65239;SHT30;51827;51.186;6.926;2024-02-23T06:03:20;19.47;53.96
65239;SHT30;51827;51.186;6.926;2024-02-23T06:04:20;19.49;53.95
65239;SHT30;51827;51.186;6.926;2024-02-23T06:05:20;19.46;53.98
65239;SHT30;51827;51.186;6.926;2024-02-23T06:06:20;19.47;53.95
65239;SHT30;51827;51.186;6.926;2024-02-23T06:07:21;19.50;53.91
65239;SHT30;51827;51.186;6.926;2024-02-23T06:08:21;19.47;53.85
65239;SHT30;51827;51.186;6.926;2024-02-23T06:09:21;19.47;53.90
65239;SHT30;51827;51.186;6.926;2024-02-23T06:10:21;19.46;53.85
65239;SHT30;51827;51.186;6.926;2024-02-23T06:11:22;19.49;53.91
65239;SHT30;51827;51.186;6.926;2024-02-23T06:12:22;19.50;53.90
65239;SHT30;51827;51.186;6.926;2024-02-23T06:13:23;19.47;53.91
65239;SHT30;51827;51.186;6.926;2024-02-23T06:14:23;19.49;53.88
65239;SHT30;51827;51.186;6.926;2024-02-23T06:15:23;19.47;53.85
65239;SHT30;51827;51.186;6.926;2024-02-23T06:16:23;19.49;53.87
65239;SHT30;51827;51.186;6.926;2024-02-23T06:17:24;19.46;53.90
65239;SHT30;51827;51.186;6.926;2024-02-23T06:18:24;19.49;53.85
65239;SHT30;51827;51.186;6.926;2024-02-23T06:19:25;19.47;53.87
65239;SHT30;51827;51.186;6.926;2024-02-23T06:20:25;19.49;53.85
65239;SHT30;51827;51.186;6.926;2024-02-23T06:21:25;19.47;53.88